Time;durP1;ratioP1;P1;durP2;ratioP2;P2;SDS_P1;SDS_P2;PMS_P1;PMS_P2;Temp;Humidity;BMP_temperature;BMP_pressure;BME280_temperature;BME280_humidity;BME280_pressure;Samples;Min_cycle;Max_cycle;Signal;HPM_P1;HPM_P2
2022/12/08 00:00:45;;;;;;;1.20;0.50;;;2.80;99.90;;;;;;5093830;28;20111;-84
2022/12/08 00:03:11;;;;;;;0.67;0.30;;;2.70;99.90;;;;;;5075547;28;20510;-84
2022/12/08 00:11:10;;;;;;;0.73;0.30;;;2.80;99.90;;;;;;5075540;28;20123;-80
2022/12/08 00:13:36;;;;;;;0.90;0.70;;;2.80;99.90;;;;;;5058754;28;20047;-80
2022/12/08 00:16:01;;;;;;;2.53;0.40;;;2.70;99.90;;;;;;5075225;28;20036;-80
2022/12/08 00:18:27;;;;;;;0.20;0.10;;;2.90;99.90;;;;;;5075140;28;20124;-80
2022/12/08 00:20:57;;;;;;;0.88;0.47;;;2.70;99.90;;;;;;5058491;28;20071;-80
2022/12/08 00:23:23;;;;;;;0.30;0.22;;;2.70;99.90;;;;;;5075432;28;20078;-79
2022/12/08 00:25:49;;;;;;;1.75;0.60;;;4.00;99.90;;;;;;5092186;28;20392;-79
2022/12/08 00:28:15;;;;;;;3.80;0.40;;;3.90;99.90;;;;;;5058480;28;20048;-79
2022/12/08 00:30:41;;;;;;;2.00;0.55;;;2.60;99.90;;;;;;5076087;28;20040;-80
2022/12/08 00:33:07;;;;;;;0.40;0.30;;;2.60;99.90;;;;;;5074975;28;20131;-80
2022/12/08 00:35:33;;;;;;;3.50;0.75;;;3.80;99.90;;;;;;5058364;28;20127;-80
2022/12/08 00:37:58;;;;;;;0.82;0.38;;;2.70;99.90;;;;;;5074881;28;20541;-80
2022/12/08 00:40:24;;;;;;;0.73;0.52;;;2.50;99.90;;;;;;5058595;28;20074;-80
2022/12/08 00:42:50;;;;;;;5.18;0.40;;;2.50;99.90;;;;;;5074786;28;20043;-80
2022/12/08 00:45:15;;;;;;;1.45;0.30;;;2.40;99.90;;;;;;5075183;28;20130;-80
2022/12/08 00:47:41;;;;;;;1.67;0.50;;;2.40;99.90;;;;;;5058078;28;20048;-80
2022/12/08 00:50:07;;;;;;;0.57;0.32;;;2.40;99.90;;;;;;5059336;28;20133;-80
2022/12/08 00:52:33;;;;;;;0.32;0.22;;;2.40;99.90;;;;;;5087446;28;20495;-80
2022/12/08 00:54:59;;;;;;;0.60;0.30;;;2.40;99.90;;;;;;5074847;28;20044;-80
2022/12/08 00:57:24;;;;;;;0.17;0.17;;;2.80;99.90;;;;;;5057942;28;20044;-80
2022/12/08 00:59:50;;;;;;;0.20;0.20;;;2.30;99.90;;;;;;5074508;28;20544;-84
2022/12/08 01:02:16;;;;;;;0.10;0.10;;;2.30;99.90;;;;;;5074788;28;20430;-84
2022/12/08 01:04:41;;;;;;;0.10;0.10;;;2.30;99.90;;;;;;5074664;28;20074;-84
2022/12/08 01:07:07;;;;;;;0.52;0.50;;;2.00;99.90;;;;;;5092709;28;20395;-84
2022/12/08 01:09:33;;;;;;;2.40;0.20;;;2.30;99.90;;;;;;5058003;28;20085;-84
2022/12/08 01:11:59;;;;;;;0.10;0.10;;;2.30;99.90;;;;;;5086467;28;20078;-84
2022/12/08 01:14:25;;;;;;;1.35;0.68;;;2.30;99.90;;;;;;5094643;28;20044;-84
2022/12/08 01:16:51;;;;;;;0.45;0.30;;;2.30;99.90;;;;;;5087946;28;20115;-80
2022/12/08 01:19:17;;;;;;;1.55;0.55;;;2.30;99.90;;;;;;5057665;28;20051;-80
2022/12/08 01:21:44;;;;;;;3.03;0.85;;;2.50;99.90;;;;;;5079887;28;20114;-80
2022/12/08 01:24:16;;;;;;;0.55;0.20;;;2.30;99.90;;;;;;5094524;28;20047;-80
2022/12/08 01:26:42;;;;;;;1.75;0.35;;;2.40;99.90;;;;;;5077746;28;20043;-80
2022/12/08 01:29:09;;;;;;;1.53;0.30;;;3.60;99.90;;;;;;5077584;28;20047;-80
2022/12/08 01:31:34;;;;;;;1.35;0.20;;;4.00;99.90;;;;;;5077137;28;20043;-80
2022/12/08 01:34:00;;;;;;;2.20;0.40;;;2.50;99.90;;;;;;5074270;28;20372;-80
2022/12/08 01:36:31;;;;;;;0.20;0.10;;;2.40;99.90;;;;;;5071866;28;20064;-80
2022/12/08 01:39:00;;;;;;;0.23;0.20;;;2.40;99.90;;;;;;5074230;28;20483;-80
2022/12/08 01:41:29;;;;;;;0.50;0.23;;;2.30;99.90;;;;;;5074481;28;20051;-80
2022/12/08 01:44:07;;;;;;;2.73;0.30;;;2.30;99.90;;;;;;5090839;28;20122;-80
2022/12/08 01:46:34;;;;;;;0.70;0.30;;;2.20;99.90;;;;;;5094654;28;20039;-80
2022/12/08 01:49:09;;;;;;;2.33;0.20;;;1.90;99.90;;;;;;5094601;28;20496;-80
2022/12/08 01:51:42;;;;;;;0.23;0.17;;;3.70;99.90;;;;;;5074092;28;20040;-80
2022/12/08 01:54:09;;;;;;;0.20;0.20;;;2.10;99.90;;;;;;5092902;28;20546;-80
2022/12/08 01:57:00;;;;;;;1.30;0.10;;;2.00;99.90;;;;;;5077501;28;20046;-80
2022/12/08 01:59:28;;;;;;;1.40;0.30;;;2.10;99.90;;;;;;5084260;28;20059;-80
2022/12/08 02:01:54;;;;;;;1.13;0.20;;;2.40;99.90;;;;;;5098266;28;20040;-80
2022/12/08 02:04:20;;;;;;;1.77;0.27;;;3.50;99.90;;;;;;5066690;28;20376;-84
2022/12/08 02:06:48;;;;;;;1.17;0.28;;;2.00;99.90;;;;;;5061629;28;20528;-80
2022/12/08 02:09:14;;;;;;;1.50;0.30;;;2.10;99.90;;;;;;5077803;28;20040;-80
2022/12/08 02:11:39;;;;;;;0.20;0.20;;;2.10;99.90;;;;;;5060983;28;20442;-80
2022/12/08 02:14:07;;;;;;;1.47;0.27;;;2.10;99.90;;;;;;5078722;28;20044;-80
2022/12/08 02:16:54;;;;;;;1.80;0.40;;;2.10;99.90;;;;;;5078066;28;20111;-80
2022/12/08 02:19:44;;;;;;;1.10;0.30;;;2.20;99.90;;;;;;5094789;28;20364;-80
2022/12/08 02:22:39;;;;;;;5.17;0.67;;;2.20;99.90;;;;;;5077500;28;20039;-80
2022/12/08 02:25:21;;;;;;;0.10;0.10;;;2.20;99.90;;;;;;5085128;28;20033;-80
2022/12/08 02:27:50;;;;;;;1.30;0.23;;;2.20;99.90;;;;;;5077602;28;20130;-80
2022/12/08 02:30:30;;;;;;;0.27;0.10;;;2.20;99.90;;;;;;5083032;28;20036;-80
2022/12/08 02:33:34;;;;;;;0.57;0.30;;;2.30;99.90;;;;;;5097775;28;20077;-80
2022/12/08 02:36:14;;;;;;;0.10;0.10;;;2.30;99.90;;;;;;5093252;28;20081;-80
2022/12/08 02:38:42;;;;;;;0.20;0.20;;;2.30;99.90;;;;;;5114419;28;20534;-80
2022/12/08 02:41:16;;;;;;;0.20;0.20;;;2.30;99.90;;;;;;5115109;28;20459;-80
2022/12/08 02:44:17;;;;;;;0.30;0.28;;;2.40;99.90;;;;;;5115399;28;20058;-80
2022/12/08 02:46:49;;;;;;;0.43;0.30;;;2.40;99.90;;;;;;5098623;28;20491;-80
2022/12/08 02:49:15;;;;;;;0.10;0.10;;;2.30;99.90;;;;;;5097714;28;20040;-80
2022/12/08 02:51:41;;;;;;;0.00;0.00;;;4.60;99.90;;;;;;5077233;28;20097;-80
2022/12/08 02:54:07;;;;;;;3.10;0.37;;;3.30;99.90;;;;;;5093733;28;20052;-80
2022/12/08 02:56:59;;;;;;;1.80;0.17;;;2.40;99.90;;;;;;5066056;28;20105;-80
2022/12/08 02:59:50;;;;;;;0.10;0.10;;;2.40;99.90;;;;;;5077122;28;20127;-80
2022/12/08 03:02:31;;;;;;;0.00;0.00;;;2.40;99.90;;;;;;5065986;28;20491;-80
2022/12/08 03:05:10;;;;;;;0.00;0.00;;;2.20;99.90;;;;;;5076744;28;20040;-80
2022/12/08 03:07:54;;;;;;;0.10;0.10;;;2.20;99.90;;;;;;5076912;28;20063;-80
2022/12/08 03:10:47;;;;;;;1.97;0.17;;;2.80;99.90;;;;;;5059300;28;20040;-80
2022/12/08 03:13:21;;;;;;;0.00;0.00;;;1.70;99.90;;;;;;5059745;28;20086;-80
2022/12/08 03:15:49;;;;;;;1.17;0.97;;;1.60;99.90;;;;;;5079165;28;20046;-80
2022/12/08 03:18:17;;;;;;;0.00;0.00;;;1.50;99.90;;;;;;5093628;28;20043;-80
2022/12/08 03:20:46;;;;;;;0.20;0.10;;;1.40;99.90;;;;;;5093925;28;20062;-80
2022/12/08 03:23:15;;;;;;;0.10;0.10;;;1.30;99.90;;;;;;5093303;28;20040;-80
2022/12/08 03:25:48;;;;;;;0.53;0.10;;;1.20;99.90;;;;;;5076264;28;20565;-80
2022/12/08 03:28:14;;;;;;;0.83;0.17;;;1.10;99.90;;;;;;5095927;28;20126;-80
2022/12/08 03:30:43;;;;;;;0.30;0.20;;;1.10;99.90;;;;;;5082199;28;20379;-81
2022/12/08 03:33:16;;;;;;;0.10;0.10;;;1.00;99.90;;;;;;5101398;28;20050;-81
2022/12/08 03:35:43;;;;;;;0.37;0.10;;;0.90;99.90;;;;;;5101426;28;20111;-81
2022/12/08 03:38:12;;;;;;;0.30;0.30;;;0.90;99.90;;;;;;5085642;28;20093;-81
2022/12/08 03:40:38;;;;;;;0.10;0.10;;;0.90;99.90;;;;;;5097441;28;20071;-81
2022/12/08 03:43:04;;;;;;;1.47;0.40;;;0.80;99.90;;;;;;5079763;28;20087;-81
2022/12/08 03:45:30;;;;;;;0.67;0.40;;;1.40;99.90;;;;;;5063379;28;20040;-81
2022/12/08 03:47:56;;;;;;;0.00;0.00;;;0.90;99.90;;;;;;5122750;27;20047;-81
2022/12/08 03:50:22;;;;;;;0.10;0.10;;;0.90;99.90;;;;;;5097686;22;20048;-80
2022/12/08 03:52:48;;;;;;;1.90;0.27;;;1.80;99.90;;;;;;5092921;28;20403;-80
2022/12/08 03:55:14;;;;;;;0.10;0.10;;;0.90;99.90;;;;;;5092637;28;20032;-80
2022/12/08 03:57:40;;;;;;;0.00;0.00;;;1.20;99.90;;;;;;5087332;28;20068;-80
2022/12/08 04:00:08;;;;;;;0.00;0.00;;;0.90;99.90;;;;;;5072513;28;20051;-80
2022/12/08 04:02:33;;;;;;;0.80;0.50;;;0.90;99.90;;;;;;5052705;28;20484;-80
2022/12/08 04:04:59;;;;;;;2.13;0.20;;;1.00;99.90;;;;;;5072032;28;20101;-85
2022/12/08 04:07:25;;;;;;;0.00;0.00;;;1.00;99.90;;;;;;5056455;28;20040;-84
2022/12/08 04:09:50;;;;;;;0.77;0.20;;;1.00;99.90;;;;;;5093336;28;20483;-84
2022/12/08 04:12:16;;;;;;;0.90;0.20;;;1.00;99.90;;;;;;5075000;28;20048;-84
2022/12/08 04:14:42;;;;;;;0.10;0.10;;;1.60;99.90;;;;;;5076008;28;20043;-84
2022/12/08 04:17:08;;;;;;;0.43;0.30;;;2.40;99.90;;;;;;5092395;28;20032;-84
2022/12/08 04:19:33;;;;;;;1.60;0.20;;;1.00;99.90;;;;;;5092410;28;20368;-82
2022/12/08 04:21:59;;;;;;;1.03;0.20;;;1.00;99.90;;;;;;5092309;28;20135;-81
2022/12/08 04:24:24;;;;;;;0.10;0.10;;;1.00;99.90;;;;;;5092352;28;20506;-81
2022/12/08 04:26:50;;;;;;;0.00;0.00;;;0.90;99.90;;;;;;5092578;28;20514;-81
2022/12/08 04:29:16;;;;;;;1.23;0.20;;;1.90;99.90;;;;;;5075310;28;20040;-81
2022/12/08 04:31:42;;;;;;;0.20;0.17;;;0.90;99.90;;;;;;5075492;28;20047;-81
2022/12/08 04:34:08;;;;;;;0.20;0.10;;;1.00;99.90;;;;;;5038829;28;20040;-81
2022/12/08 04:36:34;;;;;;;1.70;0.20;;;1.00;99.90;;;;;;5071887;28;20063;-80
2022/12/08 04:39:00;;;;;;;1.57;0.30;;;1.00;99.90;;;;;;5071529;28;20041;-80
2022/12/08 04:41:25;;;;;;;0.00;0.00;;;0.90;99.90;;;;;;5054828;28;20127;-80
2022/12/08 04:43:51;;;;;;;0.30;0.10;;;0.90;99.90;;;;;;5055918;28;20144;-80
2022/12/08 04:46:17;;;;;;;0.53;0.27;;;0.90;99.90;;;;;;5038315;28;20052;-80
2022/12/08 04:48:42;;;;;;;0.87;0.47;;;0.90;99.90;;;;;;5071172;28;20044;-80
2022/12/08 04:51:18;;;;;;;0.87;0.50;;;0.90;99.90;;;;;;5062005;28;20113;-80
2022/12/08 04:53:45;;;;;;;0.53;0.30;;;1.50;99.90;;;;;;5074685;28;20115;-81
2022/12/08 04:56:15;;;;;;;0.37;0.37;;;0.90;99.90;;;;;;5058409;28;20040;-81
2022/12/08 04:58:42;;;;;;;0.57;0.30;;;0.90;99.90;;;;;;5075968;28;20032;-81
2022/12/08 05:01:08;;;;;;;0.40;0.37;;;1.00;99.90;;;;;;5075738;28;20534;-81
2022/12/08 05:03:33;;;;;;;0.20;0.20;;;1.00;99.90;;;;;;5059427;28;20044;-81
2022/12/08 05:05:59;;;;;;;0.37;0.30;;;1.10;99.90;;;;;;5042590;28;20056;-81
2022/12/08 05:08:26;;;;;;;0.30;0.30;;;1.50;99.90;;;;;;5039420;28;20071;-81
2022/12/08 05:10:51;;;;;;;0.77;0.50;;;1.10;99.90;;;;;;5038467;28;20104;-80
2022/12/08 05:13:17;;;;;;;0.80;0.47;;;1.10;99.90;;;;;;5038155;28;20056;-80
2022/12/08 05:15:43;;;;;;;0.30;0.30;;;1.10;99.90;;;;;;5047736;28;20552;-80
2022/12/08 05:18:09;;;;;;;1.83;0.37;;;1.10;99.90;;;;;;5071336;28;20047;-80
2022/12/08 05:20:35;;;;;;;2.00;0.73;;;1.10;99.90;;;;;;5058053;28;20040;-83
2022/12/08 05:23:01;;;;;;;0.40;0.40;;;1.20;99.90;;;;;;5057955;28;20066;-84
2022/12/08 05:25:26;;;;;;;2.63;0.80;;;1.10;99.90;;;;;;5033019;28;20048;-84
2022/12/08 05:27:52;;;;;;;0.63;0.50;;;1.00;99.90;;;;;;5072612;28;20044;-80
2022/12/08 05:30:18;;;;;;;1.53;0.80;;;1.00;99.90;;;;;;5054313;28;20106;-80
2022/12/08 05:32:43;;;;;;;1.87;1.03;;;1.00;99.90;;;;;;5054218;28;20041;-80
2022/12/08 05:35:09;;;;;;;1.00;0.80;;;0.00;99.90;;;;;;5057670;28;20044;-80
2022/12/08 05:37:35;;;;;;;3.13;0.90;;;1.10;99.90;;;;;;5058378;28;20036;-80
2022/12/08 05:40:01;;;;;;;2.17;0.80;;;2.30;99.90;;;;;;5041704;28;20041;-80
2022/12/08 05:42:27;;;;;;;1.40;0.90;;;1.10;99.90;;;;;;5041598;28;20075;-80
2022/12/08 05:44:52;;;;;;;1.20;0.70;;;1.10;99.90;;;;;;5058552;28;20177;-80
2022/12/08 05:47:18;;;;;;;2.17;1.20;;;1.10;99.90;;;;;;5057164;28;20047;-84
2022/12/08 05:49:44;;;;;;;1.97;1.00;;;0.80;99.90;;;;;;5086403;28;20052;-84
2022/12/08 05:52:10;;;;;;;2.43;1.37;;;1.20;99.90;;;;;;5096185;28;20048;-84
2022/12/08 05:54:35;;;;;;;5.87;0.93;;;2.10;99.90;;;;;;5078236;28;20263;-84
2022/12/08 05:57:01;;;;;;;1.67;0.80;;;1.20;99.90;;;;;;5067960;28;20484;-84
2022/12/08 05:59:27;;;;;;;1.87;1.00;;;1.30;99.90;;;;;;5075445;28;20484;-81
2022/12/08 06:01:52;;;;;;;1.67;0.70;;;1.30;99.90;;;;;;5074898;28;20051;-84
2022/12/08 06:04:18;;;;;;;1.67;0.70;;;1.30;99.90;;;;;;5057927;28;20070;-84
2022/12/08 06:06:44;;;;;;;1.17;0.70;;;1.50;99.90;;;;;;5079596;28;20062;-84
2022/12/08 06:09:11;;;;;;;1.80;0.50;;;1.30;99.90;;;;;;5094624;28;20044;-84
2022/12/08 06:11:37;;;;;;;1.37;0.77;;;1.20;99.90;;;;;;5094612;28;20066;-84
2022/12/08 06:14:02;;;;;;;3.60;1.20;;;1.30;99.90;;;;;;5094850;28;20044;-80
2022/12/08 06:16:29;;;;;;;1.47;0.83;;;1.30;99.90;;;;;;5094116;28;20115;-84
2022/12/08 06:18:55;;;;;;;2.40;0.70;;;1.30;99.90;;;;;;5075075;28;20041;-84
2022/12/08 06:21:21;;;;;;;0.83;0.50;;;1.30;99.90;;;;;;5084324;28;20365;-84
2022/12/08 06:23:48;;;;;;;1.57;0.30;;;1.30;99.90;;;;;;5086483;28;20055;-84
2022/12/08 06:26:15;;;;;;;1.63;0.57;;;1.90;99.90;;;;;;5075954;28;20101;-80
2022/12/08 06:28:41;;;;;;;1.27;0.87;;;1.30;99.90;;;;;;5076674;28;20126;-80
2022/12/08 06:31:19;;;;;;;0.87;0.60;;;1.30;99.90;;;;;;5092466;28;20059;-80
2022/12/08 06:33:45;;;;;;;1.13;0.67;;;1.20;99.90;;;;;;5077662;28;20044;-80
2022/12/08 06:36:13;;;;;;;4.00;0.80;;;1.20;99.90;;;;;;5077523;28;20072;-80
2022/12/08 06:38:39;;;;;;;1.43;0.60;;;1.10;99.90;;;;;;5094234;28;20040;-80
2022/12/08 06:41:05;;;;;;;1.43;0.60;;;1.10;99.90;;;;;;5067131;28;20068;-80
2022/12/08 06:43:32;;;;;;;1.13;0.53;;;1.00;99.90;;;;;;5073811;28;20169;-80
2022/12/08 06:45:58;;;;;;;1.63;1.07;;;2.10;99.90;;;;;;5073588;28;20067;-80
2022/12/08 06:48:24;;;;;;;1.13;1.00;;;0.90;99.90;;;;;;5056519;28;20048;-80
2022/12/08 06:50:50;;;;;;;2.63;0.73;;;1.20;99.90;;;;;;5088931;28;20056;-84
2022/12/08 06:53:16;;;;;;;1.27;0.77;;;0.70;99.90;;;;;;5040530;28;20365;-84
2022/12/08 06:55:46;;;;;;;1.27;0.70;;;0.70;99.90;;;;;;5092722;28;20495;-84
2022/12/08 06:58:13;;;;;;;2.33;0.90;;;0.60;99.90;;;;;;5093730;28;20040;-83
2022/12/08 07:00:40;;;;;;;1.10;0.80;;;0.60;99.90;;;;;;5076806;28;20036;-84
2022/12/08 07:03:07;;;;;;;0.70;0.63;;;0.60;99.90;;;;;;5092616;28;20123;-84
2022/12/08 07:05:34;;;;;;;1.80;1.10;;;0.50;99.90;;;;;;5093618;28;20040;-84
2022/12/08 07:07:59;;;;;;;2.40;1.00;;;0.50;99.90;;;;;;5093834;28;20157;-80
2022/12/08 07:10:25;;;;;;;1.63;1.00;;;0.50;99.90;;;;;;5076589;28;20491;-80
2022/12/08 07:12:51;;;;;;;2.40;0.60;;;0.40;99.90;;;;;;5077644;28;20067;-80
2022/12/08 07:15:17;;;;;;;4.20;1.00;;;0.30;99.90;;;;;;5078619;28;20552;-80
2022/12/08 07:17:43;;;;;;;1.13;0.70;;;0.30;99.90;;;;;;5076539;28;20028;-80
2022/12/08 07:20:09;;;;;;;2.50;1.13;;;0.10;99.90;;;;;;5093278;28;20050;-80
2022/12/08 07:22:35;;;;;;;5.30;1.10;;;0.50;99.90;;;;;;5050140;28;20108;-80
2022/12/08 07:25:00;;;;;;;1.10;0.77;;;0.60;99.90;;;;;;5081278;28;20040;-80
2022/12/08 07:27:27;;;;;;;2.33;1.30;;;0.10;99.90;;;;;;5093080;28;20097;-80
2022/12/08 07:29:52;;;;;;;2.20;1.10;;;1.00;99.90;;;;;;5093025;28;20097;-80
2022/12/08 07:32:18;;;;;;;2.10;0.90;;;0.50;99.90;;;;;;5088138;28;20119;-80
2022/12/08 07:34:44;;;;;;;1.87;1.10;;;0.50;99.90;;;;;;5081383;28;20036;-80
2022/12/08 07:37:09;;;;;;;2.27;1.27;;;-0.10;99.90;;;;;;5059444;28;20605;-80
2022/12/08 07:39:35;;;;;;;1.33;0.93;;;1.30;99.90;;;;;;5059530;28;20089;-80
2022/12/08 07:42:01;;;;;;;1.27;1.10;;;-0.20;99.90;;;;;;5075951;28;20039;-80
2022/12/08 07:44:26;;;;;;;1.80;1.10;;;-0.20;99.90;;;;;;5091365;28;20044;-80
2022/12/08 07:46:52;;;;;;;2.23;1.03;;;1.10;99.90;;;;;;5076142;28;20492;-80
2022/12/08 07:49:18;;;;;;;3.00;1.47;;;-0.20;99.90;;;;;;5075687;28;20405;-80
2022/12/08 07:51:43;;;;;;;1.00;0.77;;;0.10;99.90;;;;;;5092550;28;20052;-80
2022/12/08 07:54:12;;;;;;;1.33;0.83;;;-0.20;99.90;;;;;;5064305;28;20040;-80
2022/12/08 07:56:38;;;;;;;1.20;0.70;;;-0.10;99.90;;;;;;5072451;28;20094;-80
2022/12/08 07:59:04;;;;;;;1.43;0.90;;;-0.20;99.90;;;;;;5072138;28;20037;-80
2022/12/08 08:01:32;;;;;;;1.40;0.90;;;-0.10;99.90;;;;;;5055662;28;20079;-80
2022/12/08 08:04:06;;;;;;;1.97;1.07;;;-0.30;99.90;;;;;;5080218;28;20067;-80
2022/12/08 08:06:33;;;;;;;1.40;0.67;;;-0.30;99.90;;;;;;5075872;28;20047;-80
2022/12/08 08:08:59;;;;;;;1.43;1.00;;;-0.30;99.90;;;;;;5092424;28;20051;-80
2022/12/08 08:11:25;;;;;;;3.27;1.13;;;-0.30;99.90;;;;;;5092327;28;20125;-80
2022/12/08 08:13:51;;;;;;;2.17;1.03;;;-0.20;99.90;;;;;;5075231;28;20121;-80
2022/12/08 08:16:18;;;;;;;2.23;1.30;;;-0.20;99.90;;;;;;5092479;28;20495;-81
2022/12/08 08:18:47;;;;;;;1.73;1.27;;;-0.10;99.90;;;;;;5075654;28;20047;-81
2022/12/08 08:21:13;;;;;;;2.37;1.10;;;0.00;99.90;;;;;;5075368;28;20054;-81
2022/12/08 08:23:39;;;;;;;3.00;1.20;;;0.00;99.90;;;;;;5075507;28;20131;-81
2022/12/08 08:26:05;;;;;;;2.30;1.37;;;0.10;99.90;;;;;;5072340;28;20032;-81
2022/12/08 08:28:31;;;;;;;2.67;1.30;;;0.10;99.90;;;;;;5072067;28;20128;-81
2022/12/08 08:30:58;;;;;;;4.40;1.33;;;0.20;99.90;;;;;;5071798;28;20050;-80
2022/12/08 08:33:25;;;;;;;5.70;1.27;;;0.20;99.90;;;;;;5071666;28;20037;-80
2022/12/08 08:35:50;;;;;;;1.30;1.00;;;0.20;99.90;;;;;;5069653;28;20043;-81
2022/12/08 08:38:16;;;;;;;1.53;0.97;;;0.20;99.90;;;;;;5075389;28;20040;-81
2022/12/08 08:40:42;;;;;;;1.83;1.20;;;0.20;99.90;;;;;;5091704;28;20052;-80
2022/12/08 08:43:08;;;;;;;4.80;1.43;;;0.20;99.90;;;;;;5092133;28;20138;-80
2022/12/08 08:45:34;;;;;;;2.07;1.13;;;0.80;99.90;;;;;;5090053;28;20044;-80
2022/12/08 08:48:00;;;;;;;3.80;0.90;;;0.30;99.90;;;;;;5091718;28;20040;-80
2022/12/08 08:50:26;;;;;;;1.50;0.90;;;;;;;;;;5091306;28;20076;-81
2022/12/08 08:52:52;;;;;;;4.80;1.40;;;0.60;99.90;;;;;;5075427;28;20092;-80
2022/12/08 08:55:18;;;;;;;2.17;1.07;;;0.80;99.90;;;;;;5089986;28;20483;-80
2022/12/08 08:57:44;;;;;;;1.23;0.80;;;1.30;99.90;;;;;;5071356;28;20044;-80
2022/12/08 09:00:10;;;;;;;2.77;1.20;;;1.20;99.90;;;;;;5072085;28;20044;-80
2022/12/08 09:02:37;;;;;;;1.63;1.00;;;1.40;99.90;;;;;;5070977;28;20055;-81
2022/12/08 09:05:03;;;;;;;3.30;1.23;;;1.50;99.90;;;;;;5054912;28;20044;-81
2022/12/08 09:07:29;;;;;;;6.33;1.13;;;1.70;99.90;;;;;;5055188;28;20052;-81
2022/12/08 09:09:56;;;;;;;1.60;0.90;;;1.90;99.90;;;;;;5070162;28;20126;-81
2022/12/08 09:12:21;;;;;;;1.00;0.80;;;2.10;99.90;;;;;;5054970;28;20408;-81
2022/12/08 09:14:47;;;;;;;5.50;1.20;;;2.30;99.90;;;;;;5072088;28;20037;-81
2022/12/08 09:17:13;;;;;;;3.72;0.88;;;3.00;99.90;;;;;;5046970;28;20039;-80
2022/12/08 09:19:38;;;;;;;3.23;1.07;;;2.70;99.90;;;;;;5074480;28;20050;-84
2022/12/08 09:22:04;;;;;;;4.95;1.30;;;3.10;99.90;;;;;;5074499;28;20123;-85
2022/12/08 09:24:30;;;;;;;2.95;1.42;;;3.20;99.90;;;;;;5073919;28;20046;-85
2022/12/08 09:26:56;;;;;;;8.23;2.30;;;3.60;99.90;;;;;;5074012;28;20447;-85
2022/12/08 09:29:21;;;;;;;3.63;0.70;;;3.70;99.90;;;;;;5070931;28;20115;-84
2022/12/08 09:31:47;;;;;;;1.73;0.80;;;4.70;99.90;;;;;;5072117;28;20036;-84
2022/12/08 09:34:13;;;;;;;2.75;1.15;;;3.10;99.90;;;;;;5072155;28;20075;-84
2022/12/08 09:36:39;;;;;;;1.02;0.40;;;2.90;99.90;;;;;;5054221;28;20083;-84
2022/12/08 09:39:05;;;;;;;2.22;0.77;;;4.00;99.90;;;;;;5072192;28;20054;-84
2022/12/08 09:41:36;;;;;;;1.02;0.70;;;2.60;99.90;;;;;;5072152;28;20044;-84
2022/12/08 09:44:21;;;;;;;0.30;0.20;;;2.80;99.90;;;;;;5074263;28;20126;-84
2022/12/08 09:46:51;;;;;;;1.60;0.40;;;2.00;99.90;;;;;;5091106;28;20048;-84
2022/12/08 09:49:21;;;;;;;2.03;1.00;;;2.40;99.90;;;;;;5092343;28;20114;-84
2022/12/08 09:51:47;;;;;;;3.87;1.27;;;2.40;99.90;;;;;;5074274;28;20052;-84
2022/12/08 09:54:30;;;;;;;4.00;1.73;;;2.40;99.90;;;;;;5072588;28;20181;-84
2022/12/08 09:57:00;;;;;;;4.45;1.05;;;2.70;99.90;;;;;;5054097;28;20046;-84
2022/12/08 09:59:31;;;;;;;1.30;0.95;;;3.10;99.90;;;;;;5054369;28;20048;-84
2022/12/08 10:01:58;;;;;;;3.47;1.15;;;4.60;99.90;;;;;;5054002;28;20044;-84
2022/12/08 10:04:35;;;;;;;3.35;1.27;;;3.80;99.90;;;;;;5053981;28;20072;-84
2022/12/08 10:07:17;;;;;;;2.58;1.08;;;4.20;99.90;;;;;;5053902;28;20044;-84
2022/12/08 10:10:12;;;;;;;2.20;1.05;;;4.20;99.90;;;;;;5054327;28;20451;-82
2022/12/08 10:13:04;;;;;;;3.13;1.20;;;6.20;99.90;;;;;;5055521;28;20472;-81
2022/12/08 10:15:38;;;;;;;3.33;1.33;;;5.20;99.90;;;;;;5062589;28;20063;-81
2022/12/08 10:18:16;;;;;;;2.35;1.10;;;5.60;99.90;;;;;;5059105;28;20096;-81
2022/12/08 10:20:44;;;;;;;2.40;1.20;;;5.80;99.90;;;;;;5076454;28;20073;-81
2022/12/08 10:23:30;;;;;;;1.50;0.90;;;4.90;99.90;;;;;;5078819;28;20040;-81
2022/12/08 10:26:01;;;;;;;2.85;0.90;;;5.80;99.90;;;;;;5078977;28;20040;-81
2022/12/08 10:28:26;;;;;;;4.97;1.10;;;5.90;99.90;;;;;;5077382;28;20044;-84
2022/12/08 10:30:52;;;;;;;4.93;1.40;;;6.20;99.90;;;;;;5077301;28;20403;-84
2022/12/08 10:33:20;;;;;;;3.40;1.10;;;6.70;99.90;;;;;;5077486;28;20086;-85
2022/12/08 10:35:53;;;;;;;3.78;1.27;;;7.10;99.90;;;;;;5076862;28;20052;-84
2022/12/08 10:38:25;;;;;;;3.08;0.98;;;7.50;99.90;;;;;;5077430;28;20040;-85
2022/12/08 10:40:56;;;;;;;3.25;1.20;;;8.00;99.90;;;;;;5076999;28;20102;-85
2022/12/08 10:43:24;;;;;;;4.53;0.93;;;8.70;99.90;;;;;;5077152;28;20044;-81
2022/12/08 10:45:50;;;;;;;4.05;1.88;;;9.90;99.90;;;;;;5076852;28;20089;-81
2022/12/08 10:48:18;;;;;;;2.25;0.82;;;9.10;99.90;;;;;;5076958;28;20085;-80
2022/12/08 10:50:54;;;;;;;1.48;0.93;;;9.20;99.90;;;;;;5089372;28;20075;-81
2022/12/08 10:53:24;;;;;;;4.10;1.52;;;7.80;99.90;;;;;;5093477;28;20040;-81
2022/12/08 10:56:07;;;;;;;6.97;1.60;;;8.40;99.90;;;;;;5094495;28;20455;-81
2022/12/08 10:58:43;;;;;;;2.58;0.90;;;8.00;99.90;;;;;;5075530;28;20044;-81
2022/12/08 11:01:19;;;;;;;1.70;0.80;;;7.70;99.90;;;;;;5094157;28;20448;-80
2022/12/08 11:03:50;;;;;;;2.70;0.80;;;7.60;99.90;;;;;;5076995;28;20047;-80
2022/12/08 11:06:28;;;;;;;5.05;0.85;;;7.10;99.90;;;;;;5093514;28;20052;-80
2022/12/08 11:08:57;;;;;;;0.82;0.45;;;6.60;99.90;;;;;;5075166;28;20094;-80
2022/12/08 11:11:45;;;;;;;5.65;1.08;;;6.90;99.90;;;;;;5093501;28;20066;-80
2022/12/08 11:14:15;;;;;;;3.63;0.90;;;6.20;99.90;;;;;;5093514;28;20541;-80
2022/12/08 11:16:41;;;;;;;1.30;0.75;;;5.90;99.90;;;;;;5093319;28;20027;-80
2022/12/08 11:19:15;;;;;;;2.05;1.25;;;5.60;99.90;;;;;;5092612;28;20538;-80
2022/12/08 11:21:41;;;;;;;3.28;0.88;;;5.50;99.90;;;;;;5092368;28;20072;-80
2022/12/08 11:24:13;;;;;;;2.72;1.10;;;5.40;99.90;;;;;;5076262;28;20078;-80
2022/12/08 11:26:50;;;;;;;4.90;1.55;;;5.30;99.90;;;;;;5076338;28;20126;-80
2022/12/08 11:29:16;;;;;;;3.65;1.60;;;5.40;99.90;;;;;;5079307;28;20051;-80
2022/12/08 11:32:03;;;;;;;4.82;1.75;;;6.20;99.90;;;;;;5072102;28;20053;-80
2022/12/08 11:34:50;;;;;;;3.72;1.88;;;4.80;99.90;;;;;;5056440;28;20047;-80
2022/12/08 11:37:25;;;;;;;;;;;4.80;99.90;;;;;;5073242;28;20044;-80
2022/12/08 11:39:53;;;;;;;1.85;1.10;;;4.70;99.90;;;;;;5057028;28;19917;-80
2022/12/08 11:42:23;;;;;;;1.67;1.08;;;4.80;99.90;;;;;;5072247;28;20040;-80
2022/12/08 11:45:11;;;;;;;3.45;1.00;;;5.00;99.90;;;;;;5072626;28;20036;-80
2022/12/08 11:47:43;;;;;;;1.17;0.88;;;5.50;99.90;;;;;;5056036;28;20079;-80
2022/12/08 11:50:50;;;;;;;4.13;1.02;;;6.20;99.90;;;;;;5070480;28;20056;-80
2022/12/08 11:53:27;;;;;;;2.20;0.75;;;7.00;99.90;;;;;;5055848;28;20036;-80
2022/12/08 11:55:58;;;;;;;2.50;0.90;;;7.60;99.90;;;;;;5059215;28;20125;-81
2022/12/08 11:58:48;;;;;;;2.35;1.00;;;8.30;99.90;;;;;;5075681;28;20484;-81
2022/12/08 12:01:25;;;;;;;1.67;1.00;;;8.70;99.90;;;;;;5092266;28;20080;-81
2022/12/08 12:04:18;;;;;;;1.50;0.90;;;8.70;99.90;;;;;;5092414;28;20071;-81
2022/12/08 12:06:43;;;;;;;1.70;0.77;;;8.70;99.90;;;;;;5092808;28;20050;-85
2022/12/08 12:09:16;;;;;;;6.47;1.08;;;8.70;99.90;;;;;;5092610;28;20047;-85
2022/12/08 12:12:37;;;;;;;1.58;0.85;;;8.40;99.90;;;;;;5076093;28;20522;-85
2022/12/08 12:15:40;;;;;;;2.45;0.85;;;7.90;99.90;;;;;;5070321;28;20047;-85
2022/12/08 12:18:26;;;;;;;3.08;0.80;;;7.40;99.90;;;;;;5092150;28;20044;-85
2022/12/08 12:21:18;;;;;;;5.43;0.80;;;7.00;99.90;;;;;;5091874;28;20132;-80
2022/12/08 12:24:19;;;;;;;1.88;0.65;;;6.80;99.90;;;;;;5081813;28;20530;-85
2022/12/08 12:27:16;;;;;;;2.60;1.00;;;6.00;99.90;;;;;;5031580;28;20083;-85
2022/12/08 12:29:49;;;;;;;3.88;1.13;;;7.10;99.90;;;;;;5093640;28;20054;-85
2022/12/08 12:32:15;;;;;;;4.30;1.15;;;6.90;99.90;;;;;;5091572;28;20044;-85
2022/12/08 12:34:43;;;;;;;3.75;0.95;;;6.80;99.90;;;;;;5093097;28;20097;-85
2022/12/08 12:37:16;;;;;;;3.97;1.30;;;6.70;99.90;;;;;;5093118;28;20051;-85
2022/12/08 12:40:17;;;;;;;1.10;0.57;;;7.80;99.90;;;;;;5074984;28;20526;-81
2022/12/08 12:42:50;;;;;;;2.00;0.90;;;6.90;99.90;;;;;;5072664;28;20095;-80
2022/12/08 12:45:16;;;;;;;3.40;0.85;;;6.90;99.90;;;;;;5072503;28;20036;-81
2022/12/08 12:47:56;;;;;;;1.50;0.70;;;6.90;99.90;;;;;;5054787;28;20055;-81
2022/12/08 12:50:31;;;;;;;1.52;0.70;;;7.30;99.90;;;;;;5071933;28;20106;-81
2022/12/08 12:53:05;;;;;;;3.95;0.90;;;7.70;99.90;;;;;;5074367;28;20067;-81
2022/12/08 12:55:55;;;;;;;0.98;0.43;;;7.70;99.90;;;;;;5071330;28;20036;-81
2022/12/08 12:58:26;;;;;;;1.85;0.60;;;7.90;99.90;;;;;;5071446;28;20557;-85
2022/12/08 13:01:10;;;;;;;0.55;0.50;;;8.10;99.90;;;;;;5071307;28;20048;-85
2022/12/08 13:03:37;;;;;;;2.45;0.70;;;8.10;99.90;;;;;;5073863;28;20044;-85
2022/12/08 13:06:04;;;;;;;4.25;1.05;;;7.90;99.90;;;;;;5071139;28;20602;-85
2022/12/08 13:08:30;;;;;;;5.00;0.60;;;7.70;99.90;;;;;;5054682;28;20139;-85
2022/12/08 13:11:08;;;;;;;0.73;0.30;;;7.40;99.90;;;;;;5054768;28;20467;-85
2022/12/08 13:13:53;;;;;;;2.03;0.90;;;7.70;99.90;;;;;;5071224;28;20119;-82
2022/12/08 13:16:26;;;;;;;0.85;0.77;;;6.90;99.90;;;;;;5073152;28;20094;-82
2022/12/08 13:18:57;;;;;;;0.90;0.63;;;6.60;99.90;;;;;;5074557;28;20502;-82